Sunday, May 27, 2018, 11:48 AM EDT

KGED, Georgetown Sussex Co Airport

Location: Georgetown, DE, United States Lat: 38.683
Local Time: 11:48 AM EDT (15:48 GMT) Lon: -75.367
Time Zone: US/Eastern Elev: 52 ft

Show me the last for .
Show Decoded

2018-05-27 11:01 METAR KGED 271501Z AUTO 23007KT 10SM BKN017 OVC034 26/22 A2994 RMK AO2 T02560222
                 $ =
2018-05-27 10:54 METAR KGED 271454Z AUTO 22010KT 10SM BKN014 BKN020 OVC034 26/22 A2994 RMK AO2
                 SLP138 T02560222 55000 $ =
2018-05-27 10:24 METAR KGED 271424Z AUTO 23007KT 10SM BKN014 OVC033 25/22 A2994 RMK AO2 T02500222
                 $ =
2018-05-27 10:20 METAR KGED 271420Z AUTO 24007KT 10SM SCT014 SCT021 OVC033 25/22 A2994 RMK AO2
                 T02500222 $ =
2018-05-27 09:54 METAR KGED 271354Z AUTO 22010KT 10SM BKN011 OVC021 24/22 A2994 RMK AO2 SLP137
                 T02440222 $ =
2018-05-27 09:49 METAR KGED 271349Z AUTO 21010KT 10SM BKN011 OVC021 24/23 A2994 RMK AO2 $ =
2018-05-27 09:41 METAR KGED 271341Z AUTO 23009KT 10SM SCT011 OVC021 24/23 A2994 RMK AO2 T02440228
                 $ =
2018-05-27 08:54 METAR KGED 271254Z AUTO 22007KT 10SM SCT008 BKN013 OVC026 24/22 A2994 RMK AO2
                 SLP138 T02390222 $ =
2018-05-27 08:02 METAR KGED 271202Z AUTO 21006KT 9SM FEW005 BKN016 BKN024 23/22 A2992 RMK AO2
                 T02280222 $ =
2018-05-27 07:54 METAR KGED 271154Z AUTO 20006KT 9SM BKN016 BKN024 23/22 A2992 RMK AO2 RAE19
                 SLP131 P0008 60041 70041 T02280217 10244 20222 50004 $ =
2018-05-27 07:29 METAR KGED 271129Z AUTO 20004KT 9SM SCT007 OVC016 22/22 A2992 RMK AO2 RAE19
                 P0008 T02220217 $ =
2018-05-27 07:11 METAR KGED 271111Z AUTO 21005KT 3SM -RA BR BKN007 BKN041 OVC100 22/22 A2992 RMK
                 AO2 P0008 T02220217 $ =
2018-05-27 06:54 METAR KGED 271054Z AUTO 20007KT 1 3/4SM +RA BR BKN009 BKN038 OVC075 22/22 A2992
                 RMK AO2 SLP132 P0026 T02220217 $ =
2018-05-27 06:36 METAR KGED 271036Z AUTO 20008KT 3SM RA BR BKN008 BKN023 OVC047 22/21 A2992 RMK
                 AO2 P0018 T02220211 $ =
2018-05-27 06:16 METAR KGED 271016Z AUTO 19006KT 7SM -RA FEW019 BKN024 OVC034 22/21 A2992 RMK AO2
                 P0013 T02220211 $ =
2018-05-27 06:08 METAR KGED 271008Z AUTO 18008KT 2 1/2SM -RA BR FEW018 BKN024 OVC036 22/21 A2991
                 RMK AO2 VIS 1 1/4V5 P0012 T02220211 $ =
2018-05-27 05:54 METAR KGED 270954Z AUTO 20008KT 10SM -RA SCT018 BKN027 OVC047 22/21 A2991 RMK
                 AO2 RAB37 SLP128 P0002 T02220211 $ =
2018-05-27 05:51 METAR KGED 270951Z AUTO 20008KT 10SM -RA SCT018 BKN027 OVC060 22/21 A2991 RMK
                 AO2 RAB37 P0002 $ =
2018-05-27 05:36 METAR KGED 270936Z AUTO 20009KT 9SM VCTS FEW018 BKN046 OVC070 23/21 A2991 RMK
                 AO2 T02280211 $ =
2018-05-27 04:54 METAR KGED 270854Z AUTO 20007KT 10SM BKN045 23/21 A2991 RMK AO2 SLP126 60005
                 T02280211 55003 $ =
2018-05-27 03:54 METAR KGED 270754Z AUTO 21005KT 10SM SCT110 23/21 A2989 RMK AO2 LTG DSNT N RAE33
                 TSE00 SLP121 P0001 T02280211 $ =
2018-05-27 03:06 METAR KGED 270706Z AUTO 19004KT 10SM -RA FEW026 SCT046 BKN090 22/21 A2991 RMK
                 AO2 LTG DSNT NW TSE00 P0000 T02220211 $ =
2018-05-27 02:54 METAR KGED 270654Z AUTO 29006KT 10SM -TSRA FEW015 BKN090 OVC110 23/21 A2991 RMK
                 AO2 TSB45 SLP128 P0004 T02280211 $ =
2018-05-27 02:51 METAR KGED 270651Z AUTO VRB06KT 10SM -TSRA FEW015 BKN090 OVC110 23/21 A2992 RMK
                 AO2 TSB45 P0004 $ =
2018-05-27 02:21 METAR KGED 270621Z AUTO 21009KT 6SM VCTS -RA BR SCT044 SCT060 BKN090 24/22 A2991
                 RMK AO2 LTG DSNT W AND NW P0001 T02390217 $ =
2018-05-27 01:54 METAR KGED 270554Z AUTO 18006KT 10SM -RA FEW048 SCT110 24/22 A2991 RMK AO2 LTG
                 DSNT SE-W RAB38 SLP126 P0000 60000 T02390217 10283 20239 51002 $ =
2018-05-27 00:54 METAR KGED 270454Z AUTO 00000KT 10SM CLR 25/21 A2990 RMK AO2 SLP125 T02500211
                 403220200 $ =
2018-05-26 23:54 METAR KGED 270354Z AUTO 22003KT 10SM CLR 26/21 A2991 RMK AO2 SLP127 T02560211 $
                 =
2018-05-26 22:54 METAR KGED 270254Z AUTO 21005KT 10SM CLR 26/22 A2990 RMK AO2 SLP124 T02560217
                 51015 $ =
2018-05-26 21:54 METAR KGED 270154Z AUTO 21005KT 10SM CLR 26/22 A2989 RMK AO2 SLP122 T02610217 $
                 =
2018-05-26 20:54 METAR KGED 270054Z AUTO 20005KT 10SM CLR 27/21 A2987 RMK AO2 SLP113 T02670211 $
                 =
2018-05-26 19:54 METAR KGED 262354Z AUTO 22008KT 10SM CLR 27/21 A2986 RMK AO2 SLP110 T02720211
                 10322 20272 53006 $ =
2018-05-26 18:54 METAR KGED 262254Z AUTO 22010KT 10SM CLR 29/21 A2985 RMK AO2 SLP105 T02890211 $
                 =
2018-05-26 17:54 METAR KGED 262154Z AUTO 22008KT 10SM CLR 30/21 A2984 RMK AO2 SLP103 T03000211 $
                 =
2018-05-26 16:54 METAR KGED 262054Z AUTO 23014G19KT 10SM FEW042 31/21 A2984 RMK AO2 SLP103
                 T03110206 55007 $ =
2018-05-26 15:54 METAR KGED 261954Z AUTO 22011KT 10SM FEW040 31/21 A2983 RMK AO2 SLP102 T03110211
                 $ =
2018-05-26 14:54 METAR KGED 261854Z AUTO 23015G18KT 10SM CLR 31/20 A2985 RMK AO2 SLP107 T03110200
                 $ =
2018-05-26 13:54 METAR KGED 261754Z AUTO 25010KT 10SM CLR 31/21 A2986 RMK AO2 SLP110 T03060211
                 10306 20244 58011 $ =
2018-05-26 12:54 METAR KGED 261654Z AUTO 24010G19KT 10SM CLR 30/21 A2987 RMK AO2 SLP115 T03000211
                 $ =
2018-05-26 11:54 METAR KGED 261554Z AUTO 23007KT 10SM CLR 29/20 A2988 RMK AO2 SLP118 T02940200 $
                 =

Support USWX by starting your Amazon purchase here.